Aviation Digital Data Service (ADDS)

Output produced by METARs form (0116 UTC 16 January 2019)
found at http://www.aviationweather.gov/metar/data/
 
TAF KFAF 151900Z 1519/1701 VRB06KT 9999 BKN030 QNH3017INS 
     BECMG 1602/1603 VRB06KT 9999 BKN015 QNH3018INS 
     BECMG 1611/1612 25009KT 9999 SCT015 QNH3015INS 
     BECMG 1614/1615 26010G15KT 9999 SKC QNH3018INS 
     BECMG 1622/1623 VRB06KT 9999 FEW025 QNH3017INS TX08/1619Z TNM02/1605Z LAST
NO AMDS AFT 1604 NEXT 1611
       
KFAR 160104Z 1601/1624 35017KT P6SM BKN007 
     FM160200 35014KT P6SM FEW015 
     FM160800 35006KT P6SM SKC 
     FM161600 VRB03KT P6SM FEW200
       
KFAT 160016Z 1600/1624 10003KT 6SM -RA BR OVC050 
     FM160400 12007KT P6SM -SHRA SCT030 BKN050 
     FM160700 10012KT P6SM SCT030 BKN050 
     TEMPO 1607/1608 4SM -SHRA BR OVC035 
     FM161100 10008KT P6SM SCT030 BKN050 
     FM162300 14014KT 4SM -RA BR OVC100
       
KFAY 152339Z 1600/1624 VRB02KT P6SM BKN035 
     FM160300 VRB03KT P6SM SCT025 
     FM160900 VRB03KT P6SM FEW035 
     TEMPO 1610/1613 2SM BR FEW140 
     FM161300 VRB04KT P6SM FEW025 
     FM161700 26007KT P6SM FEW250
       
TAF KFBG 151800Z 1518/1624 34009KT 9999 BKN020 OVC030 620202 QNH3017INS 
     BECMG 1521/1522 33006KT 9999 BKN030 620301 QNH3018INS 
     BECMG 1614/1615 26009KT 9999 SCT025 QNH3017INS TX10/1618Z TN04/1611Z
       
TAF KFCS 152109Z 1521/1703 VRB06KT 9999 SKC QNH3002INS 
     BECMG 1608/1609 VRB06KT 9999 BKN070 QNH2990INS 
     BECMG 1617/1618 29012KT 9999 SCT100 QNH2988INS 
     BECMG 1702/1703 27009KT 9999 SKC QNH2996INS TX13/1521Z TN03/1605Z
       
KFDY 152335Z 1600/1624 22010KT 5SM BR OVC007 
     TEMPO 1600/1604 -FZDZSN 
     FM160600 25013KT 2SM BR OVC005 
     FM161500 29010KT 6SM BR OVC009 
     FM161800 32006KT P6SM BKN015
       
TAF AMD KFFO 152145Z 1521/1701 22009KT 4800 BR OVC006 620063 QNH3009INS 
     BECMG 1610/1611 29009KT 9000 -SN OVC005 620054 QNH3010INS 
     BECMG 1617/1618 31006KT 9999 NSW OVC010 620104 QNH3017INS TX00/1617Z
TNM04/1521Z
       
TAF KFHU 151800Z 1518/1624 22012KT 9999 SCT150 QNH3013INS 
     BECMG 1600/1601 22009KT 9999 SCT100 QNH3013INS 
     BECMG 1611/1612 22009KT 8000 BR SCT100 QNH3020INS 
     BECMG 1614/1615 16009KT 9999 NSW FEW050 SCT070 QNH3020INS 
     BECMG 1620/1621 27009KT 9999 SCT100 QNH3019INS TX15/1522Z TN03/1614Z
       
KFKL 152334Z 1600/1624 22008KT P6SM VCSH OVC015 
     FM160400 22011KT 3SM -FZDZSN BR OVC007 
     FM161000 24011G19KT 3SM -SHSN OVC007 
     FM161800 28010G18KT 6SM -SHSN OVC015
       
KFLG 152324Z 1600/1624 21010KT 2SM -SN OVC005 
     TEMPO 1600/1603 1/2SM SN OVC003 
     FM160300 22007KT 5SM -SHSN OVC005 
     FM161100 23005KT 2SM BR OVC005 
     FM161600 23010KT P6SM BKN020
       
KFLL 152323Z 1600/1706 33007KT P6SM SCT030 
     FM160200 34006KT P6SM SCT030 
     FM161500 35008KT P6SM FEW035 
     FM161800 02009KT P6SM SCT035 
     FM170100 01006KT P6SM FEW030
       
KFLO 152320Z 1600/1624 30005KT P6SM OVC050 
     FM160900 00000KT 2SM BR SKC 
     FM161500 26005KT P6SM SKC
       
KFMH 152322Z 1600/1624 VRB03KT P6SM BKN200 
     FM160100 VRB03KT P6SM SKC 
     FM161500 23010G17KT P6SM SKC 
     FM161700 24014G25KT P6SM FEW025 
     FM162300 26011G22KT P6SM SKC
       
KFMN 152324Z 1600/1624 12006KT P6SM BKN050 
     FM160300 11006KT 5SM -RA BR OVC020 
     FM160700 13007KT 3SM -RASN BR OVC009 
     FM161500 27006KT 5SM BR VCSH OVC012 
     FM162000 29007KT P6SM BKN035
       
KFMY 152322Z 1600/1624 36007KT P6SM SKC 
     FM160700 01005KT P6SM SCT200 
     FM162100 35008KT P6SM SKC
       
KFNT 152337Z 1600/1624 22013KT 4SM BR OVC007 
     FM160400 24010KT 2SM -FZDZ BR OVC004 
     FM160900 28010KT 4SM BR OVC007 
     FM161200 30013KT P6SM BKN020 OVC035 
     FM161500 36013KT P6SM BKN035 
     FM162000 03007KT P6SM SCT035 BKN200
       
KFOD 152337Z 1600/1624 27008KT P6SM OVC011 
     FM160600 35009KT P6SM SCT012 BKN040 
     FM161200 03008KT P6SM SCT150
       
KFOE 152337Z 1600/1624 22006KT 2SM BR OVC003 
     FM160100 21005KT 1SM BR OVC002 
     FM160300 VRB04KT 1/4SM FG OVC002 
     FM161000 02004KT 1SM BR OVC003 
     FM161900 07005KT 3SM -FZDZ BR OVC005
       
KFPR 152337Z 1600/1624 VRB06KT P6SM SKC 
     FM161400 34007KT P6SM FEW030 
     FM161730 05010KT P6SM SCT040 SCT250
       
TAF KFRI 160000Z 1600/1706 23009KT 9999 BKN004 620044 QNH3008INS 
     BECMG 1601/1602 28006KT 3600 BR OVC004 620043 QNH3012INS 
     BECMG 1608/1609 31003KT 0800 FZFG VV003 620033 QNH3013INS 
     BECMG 1611/1612 03006KT 1600 -RASN OVC003 620033 QNH3016INS 
     TEMPO 1612/1614 1600 FZRA 690001 
     BECMG 1613/1614 08006KT 9999 -SN OVC003 620033 QNH3003INS 
     TEMPO 1614/1706 3200 FZRA 690001 TX02/1600Z TNM03/1612Z
       
KFSD 152324Z 1600/1624 34011G16KT P6SM OVC010 
     FM160500 01011KT P6SM BKN020 
     FM160800 01010KT P6SM FEW020 SCT200 
     FM161900 11006KT P6SM BKN080
       
TAF KFSI 152200Z 1522/1704 20012KT 9999 BKN025 QNH3013INS 
     BECMG 1602/1603 15006KT 9999 OVC010 QNH3000INS 
     BECMG 1620/1621 19009KT 9999 SCT010 QNH2998INS TX12/1522Z TN05/1614Z LAST
NO AMDS AFT 1604 NEXT 1614
       
KFSM 152328Z 1600/1624 06003KT P6SM BKN040 
     FM160900 06003KT 4SM BR BKN030 
     FM161600 09007KT P6SM BKN030
       
KFST 152330Z 1600/1624 13007KT P6SM SCT250
       
TAF KFTK 160100Z 1601/1707 23009KT 9999 OVC016 620163 QNH3021INS 
     BECMG 1604/1605 22006KT 8000 BR OVC008 620153 QNH3018INS 
     BECMG 1610/1611 25006KT 9000 -DZ OVC010 QNH3018INS 
     BECMG 1623/1624 21006KT 9999 NSW OVC010 QNH3022INS TX04/1617Z TN00/1601Z
       
KFTW 152331Z 1600/1624 16008KT P6SM SCT025 OVC035 
     TEMPO 1600/1602 BKN025 
     FM160200 17007KT P6SM BKN025 
     FM161100 18010KT P6SM SCT004 OVC010 
     FM161900 19014KT P6SM BKN020 
     FM162200 19013KT P6SM SCT025 BKN250
       
KFTY 152320Z 1600/1624 30005KT P6SM FEW250 
     FM160200 00000KT P6SM FEW250 
     FM161500 31006KT P6SM FEW250
       
KFVE 152334Z 1600/1624 33006KT P6SM SCT035 
     FM160600 VRB03KT P6SM OVC025 
     FM161200 18008KT 2SM -SN BR OVC015 
     FM161600 20010G18KT 5SM -SHSN OVC015 
     FM161800 22010G18KT P6SM VCSH OVC015 
     FM162100 27010G18KT 3SM -SHSN BKN015 OVC025
       
KFWA 152329Z 1600/1624 25014KT P6SM OVC009 
     FM160300 23011KT 5SM BR OVC005 
     FM160700 24010KT 4SM -FZDZ BR OVC005 
     FM161600 28009KT 5SM BR OVC010
       
KFXE 152323Z 1600/1624 32006KT P6SM FEW030 
     FM160100 33003KT P6SM FEW030 
     FM161500 34007KT P6SM FEW035 
     FM161900 02009KT P6SM SCT035
       
KFYV 152328Z 1600/1624 20003KT P6SM BKN035 
     FM160900 21003KT 4SM BR BKN025 
     FM161600 18008KT P6SM BKN025